sensor_id;sensor_type;location;lat;lon;timestamp;P1;durP1;ratioP1;P2;durP2;ratioP2
51382;SDS011;37475;43.358;1.248;2023-11-18T00:01:23;22.73;;;11.63;;
51382;SDS011;37475;43.358;1.248;2023-11-18T00:03:49;23.45;;;11.73;;
51382;SDS011;37475;43.358;1.248;2023-11-18T00:06:15;22.02;;;13.20;;
51382;SDS011;37475;43.358;1.248;2023-11-18T00:08:41;17.40;;;10.00;;
51382;SDS011;37475;43.358;1.248;2023-11-18T00:11:08;23.23;;;10.85;;
51382;SDS011;37475;43.358;1.248;2023-11-18T00:13:36;19.30;;;9.55;;
51382;SDS011;37475;43.358;1.248;2023-11-18T00:16:04;18.98;;;10.15;;
51382;SDS011;37475;43.358;1.248;2023-11-18T00:18:37;25.45;;;11.73;;
51382;SDS011;37475;43.358;1.248;2023-11-18T00:21:06;29.02;;;14.60;;
51382;SDS011;37475;43.358;1.248;2023-11-18T00:23:33;34.83;;;16.88;;
51382;SDS011;37475;43.358;1.248;2023-11-18T00:25:59;33.38;;;16.05;;
51382;SDS011;37475;43.358;1.248;2023-11-18T00:28:25;26.55;;;13.02;;
51382;SDS011;37475;43.358;1.248;2023-11-18T00:30:51;28.33;;;15.52;;
51382;SDS011;37475;43.358;1.248;2023-11-18T00:33:17;31.75;;;15.40;;
51382;SDS011;37475;43.358;1.248;2023-11-18T00:35:43;26.25;;;13.45;;
51382;SDS011;37475;43.358;1.248;2023-11-18T00:38:10;24.15;;;13.57;;
51382;SDS011;37475;43.358;1.248;2023-11-18T00:40:36;25.35;;;10.57;;
51382;SDS011;37475;43.358;1.248;2023-11-18T00:43:02;19.98;;;9.23;;
51382;SDS011;37475;43.358;1.248;2023-11-18T00:45:28;18.83;;;9.65;;
51382;SDS011;37475;43.358;1.248;2023-11-18T00:47:54;18.00;;;8.95;;
51382;SDS011;37475;43.358;1.248;2023-11-18T00:50:20;19.75;;;8.70;;
51382;SDS011;37475;43.358;1.248;2023-11-18T00:52:46;14.52;;;8.13;;
51382;SDS011;37475;43.358;1.248;2023-11-18T00:55:14;14.95;;;7.65;;
51382;SDS011;37475;43.358;1.248;2023-11-18T00:57:43;17.67;;;7.18;;
51382;SDS011;37475;43.358;1.248;2023-11-18T01:00:13;17.20;;;7.85;;
51382;SDS011;37475;43.358;1.248;2023-11-18T01:02:46;13.75;;;6.63;;
51382;SDS011;37475;43.358;1.248;2023-11-18T01:05:14;14.82;;;7.22;;
51382;SDS011;37475;43.358;1.248;2023-11-18T01:07:41;17.17;;;7.93;;
51382;SDS011;37475;43.358;1.248;2023-11-18T01:10:08;17.27;;;8.43;;
51382;SDS011;37475;43.358;1.248;2023-11-18T01:12:35;17.83;;;7.65;;
51382;SDS011;37475;43.358;1.248;2023-11-18T01:15:01;19.00;;;8.45;;
51382;SDS011;37475;43.358;1.248;2023-11-18T01:17:28;23.67;;;10.38;;
51382;SDS011;37475;43.358;1.248;2023-11-18T01:19:56;28.20;;;10.52;;
51382;SDS011;37475;43.358;1.248;2023-11-18T01:22:23;25.77;;;9.88;;
51382;SDS011;37475;43.358;1.248;2023-11-18T01:24:49;21.05;;;9.00;;
51382;SDS011;37475;43.358;1.248;2023-11-18T01:27:16;22.60;;;8.73;;
51382;SDS011;37475;43.358;1.248;2023-11-18T01:29:44;21.70;;;9.23;;
51382;SDS011;37475;43.358;1.248;2023-11-18T01:32:12;22.90;;;8.90;;
51382;SDS011;37475;43.358;1.248;2023-11-18T01:34:39;17.98;;;7.60;;
51382;SDS011;37475;43.358;1.248;2023-11-18T01:37:05;19.58;;;8.90;;
51382;SDS011;37475;43.358;1.248;2023-11-18T01:39:32;23.88;;;9.63;;
51382;SDS011;37475;43.358;1.248;2023-11-18T01:41:59;15.90;;;7.95;;
51382;SDS011;37475;43.358;1.248;2023-11-18T01:44:25;15.85;;;6.95;;
51382;SDS011;37475;43.358;1.248;2023-11-18T01:46:53;13.95;;;7.60;;
51382;SDS011;37475;43.358;1.248;2023-11-18T01:49:20;21.63;;;7.85;;
51382;SDS011;37475;43.358;1.248;2023-11-18T01:51:47;15.73;;;7.85;;
51382;SDS011;37475;43.358;1.248;2023-11-18T01:54:18;16.05;;;7.70;;
51382;SDS011;37475;43.358;1.248;2023-11-18T01:56:48;16.00;;;7.75;;
51382;SDS011;37475;43.358;1.248;2023-11-18T01:59:15;17.63;;;7.72;;
51382;SDS011;37475;43.358;1.248;2023-11-18T02:01:51;16.20;;;7.57;;
51382;SDS011;37475;43.358;1.248;2023-11-18T02:04:19;18.05;;;8.48;;
51382;SDS011;37475;43.358;1.248;2023-11-18T02:06:46;18.67;;;8.05;;
51382;SDS011;37475;43.358;1.248;2023-11-18T02:09:14;15.80;;;7.97;;
51382;SDS011;37475;43.358;1.248;2023-11-18T02:11:45;16.08;;;7.35;;
51382;SDS011;37475;43.358;1.248;2023-11-18T02:14:21;17.63;;;7.90;;
51382;SDS011;37475;43.358;1.248;2023-11-18T02:16:52;13.43;;;7.32;;
51382;SDS011;37475;43.358;1.248;2023-11-18T02:19:21;16.38;;;7.55;;
51382;SDS011;37475;43.358;1.248;2023-11-18T02:21:49;14.63;;;7.68;;
51382;SDS011;37475;43.358;1.248;2023-11-18T02:24:52;32.72;;;12.32;;
51382;SDS011;37475;43.358;1.248;2023-11-18T02:27:11;36.15;;;13.82;;
51382;SDS011;37475;43.358;1.248;2023-11-18T02:29:38;33.45;;;14.93;;
51382;SDS011;37475;43.358;1.248;2023-11-18T02:32:25;39.20;;;17.05;;
51382;SDS011;37475;43.358;1.248;2023-11-18T02:37:41;23.65;;;10.95;;
51382;SDS011;37475;43.358;1.248;2023-11-18T02:40:33;24.83;;;9.63;;
51382;SDS011;37475;43.358;1.248;2023-11-18T02:43:01;19.48;;;9.40;;
51382;SDS011;37475;43.358;1.248;2023-11-18T02:45:32;23.08;;;9.07;;
51382;SDS011;37475;43.358;1.248;2023-11-18T02:48:01;18.27;;;8.30;;
51382;SDS011;37475;43.358;1.248;2023-11-18T02:50:27;17.42;;;8.18;;
51382;SDS011;37475;43.358;1.248;2023-11-18T02:52:54;13.82;;;7.90;;
51382;SDS011;37475;43.358;1.248;2023-11-18T02:55:20;13.55;;;7.40;;
51382;SDS011;37475;43.358;1.248;2023-11-18T02:57:47;17.52;;;8.40;;
51382;SDS011;37475;43.358;1.248;2023-11-18T03:00:14;19.95;;;8.35;;
51382;SDS011;37475;43.358;1.248;2023-11-18T03:02:47;17.15;;;8.02;;
51382;SDS011;37475;43.358;1.248;2023-11-18T03:05:15;15.85;;;7.75;;
51382;SDS011;37475;43.358;1.248;2023-11-18T03:07:41;16.83;;;7.70;;
51382;SDS011;37475;43.358;1.248;2023-11-18T03:10:09;18.45;;;8.18;;
51382;SDS011;37475;43.358;1.248;2023-11-18T03:12:36;15.10;;;7.80;;
51382;SDS011;37475;43.358;1.248;2023-11-18T03:15:03;16.45;;;8.07;;
51382;SDS011;37475;43.358;1.248;2023-11-18T03:17:34;18.25;;;8.73;;
51382;SDS011;37475;43.358;1.248;2023-11-18T03:20:00;13.38;;;7.47;;
51382;SDS011;37475;43.358;1.248;2023-11-18T03:22:25;42.13;;;8.40;;
51382;SDS011;37475;43.358;1.248;2023-11-18T03:24:51;40.33;;;10.00;;
51382;SDS011;37475;43.358;1.248;2023-11-18T03:27:17;14.55;;;7.07;;
51382;SDS011;37475;43.358;1.248;2023-11-18T03:29:43;14.63;;;7.35;;
51382;SDS011;37475;43.358;1.248;2023-11-18T03:32:11;19.70;;;7.78;;
51382;SDS011;37475;43.358;1.248;2023-11-18T03:34:37;18.98;;;7.57;;
51382;SDS011;37475;43.358;1.248;2023-11-18T03:37:03;15.05;;;7.05;;
51382;SDS011;37475;43.358;1.248;2023-11-18T03:39:29;15.00;;;8.35;;
51382;SDS011;37475;43.358;1.248;2023-11-18T03:41:55;13.30;;;6.78;;
51382;SDS011;37475;43.358;1.248;2023-11-18T03:44:22;18.92;;;8.40;;
51382;SDS011;37475;43.358;1.248;2023-11-18T03:46:51;18.50;;;8.43;;
51382;SDS011;37475;43.358;1.248;2023-11-18T03:49:17;15.70;;;7.72;;
51382;SDS011;37475;43.358;1.248;2023-11-18T03:51:44;23.15;;;8.65;;
51382;SDS011;37475;43.358;1.248;2023-11-18T03:54:10;15.40;;;7.80;;
51382;SDS011;37475;43.358;1.248;2023-11-18T03:56:37;16.13;;;7.38;;
51382;SDS011;37475;43.358;1.248;2023-11-18T03:59:03;15.18;;;6.95;;
51382;SDS011;37475;43.358;1.248;2023-11-18T04:01:29;15.25;;;8.18;;
51382;SDS011;37475;43.358;1.248;2023-11-18T04:03:55;15.65;;;7.32;;
51382;SDS011;37475;43.358;1.248;2023-11-18T04:06:22;13.63;;;7.28;;
51382;SDS011;37475;43.358;1.248;2023-11-18T04:08:49;13.30;;;7.53;;
51382;SDS011;37475;43.358;1.248;2023-11-18T04:11:15;16.63;;;7.80;;
51382;SDS011;37475;43.358;1.248;2023-11-18T04:13:42;15.73;;;8.15;;
51382;SDS011;37475;43.358;1.248;2023-11-18T04:16:14;18.08;;;7.68;;
51382;SDS011;37475;43.358;1.248;2023-11-18T04:18:43;13.38;;;6.88;;
51382;SDS011;37475;43.358;1.248;2023-11-18T04:21:10;26.95;;;12.50;;
51382;SDS011;37475;43.358;1.248;2023-11-18T04:23:38;26.70;;;12.18;;
51382;SDS011;37475;43.358;1.248;2023-11-18T04:26:06;20.20;;;10.60;;
51382;SDS011;37475;43.358;1.248;2023-11-18T04:28:36;22.85;;;11.50;;
51382;SDS011;37475;43.358;1.248;2023-11-18T04:31:02;23.90;;;10.85;;
51382;SDS011;37475;43.358;1.248;2023-11-18T04:33:28;20.77;;;9.63;;
51382;SDS011;37475;43.358;1.248;2023-11-18T04:35:54;18.33;;;8.30;;
51382;SDS011;37475;43.358;1.248;2023-11-18T04:38:23;22.73;;;9.20;;
51382;SDS011;37475;43.358;1.248;2023-11-18T04:40:50;21.65;;;10.00;;
51382;SDS011;37475;43.358;1.248;2023-11-18T04:43:18;19.55;;;9.65;;
51382;SDS011;37475;43.358;1.248;2023-11-18T04:45:45;19.88;;;9.43;;
51382;SDS011;37475;43.358;1.248;2023-11-18T04:48:11;16.23;;;8.52;;
51382;SDS011;37475;43.358;1.248;2023-11-18T04:50:41;20.42;;;10.25;;
51382;SDS011;37475;43.358;1.248;2023-11-18T04:53:07;19.23;;;9.60;;
51382;SDS011;37475;43.358;1.248;2023-11-18T04:55:35;17.98;;;8.88;;
51382;SDS011;37475;43.358;1.248;2023-11-18T04:58:01;19.38;;;9.45;;
51382;SDS011;37475;43.358;1.248;2023-11-18T05:00:27;18.92;;;9.48;;
51382;SDS011;37475;43.358;1.248;2023-11-18T05:02:53;15.18;;;7.53;;
51382;SDS011;37475;43.358;1.248;2023-11-18T05:05:19;15.43;;;8.95;;
51382;SDS011;37475;43.358;1.248;2023-11-18T05:07:47;16.60;;;8.00;;
51382;SDS011;37475;43.358;1.248;2023-11-18T05:10:13;17.50;;;8.65;;
51382;SDS011;37475;43.358;1.248;2023-11-18T05:12:39;18.85;;;8.45;;
51382;SDS011;37475;43.358;1.248;2023-11-18T05:15:05;14.70;;;8.13;;
51382;SDS011;37475;43.358;1.248;2023-11-18T05:17:33;17.42;;;8.68;;
51382;SDS011;37475;43.358;1.248;2023-11-18T05:20:03;19.95;;;9.07;;
51382;SDS011;37475;43.358;1.248;2023-11-18T05:22:32;49.47;;;22.17;;
51382;SDS011;37475;43.358;1.248;2023-11-18T05:24:58;53.40;;;23.45;;
51382;SDS011;37475;43.358;1.248;2023-11-18T05:27:24;44.70;;;21.00;;
51382;SDS011;37475;43.358;1.248;2023-11-18T05:29:51;41.85;;;19.42;;
51382;SDS011;37475;43.358;1.248;2023-11-18T05:32:20;47.42;;;23.67;;
51382;SDS011;37475;43.358;1.248;2023-11-18T05:34:48;39.72;;;20.85;;
51382;SDS011;37475;43.358;1.248;2023-11-18T05:37:18;46.08;;;21.45;;
51382;SDS011;37475;43.358;1.248;2023-11-18T05:39:45;19.65;;;9.73;;
51382;SDS011;37475;43.358;1.248;2023-11-18T05:42:11;19.63;;;8.57;;
51382;SDS011;37475;43.358;1.248;2023-11-18T05:44:37;17.55;;;8.18;;
51382;SDS011;37475;43.358;1.248;2023-11-18T05:47:05;19.75;;;8.23;;
51382;SDS011;37475;43.358;1.248;2023-11-18T05:49:32;14.23;;;7.22;;
51382;SDS011;37475;43.358;1.248;2023-11-18T05:51:59;20.50;;;8.90;;
51382;SDS011;37475;43.358;1.248;2023-11-18T05:54:25;20.27;;;9.73;;
51382;SDS011;37475;43.358;1.248;2023-11-18T05:56:51;18.17;;;9.68;;
51382;SDS011;37475;43.358;1.248;2023-11-18T05:59:18;20.00;;;10.35;;
51382;SDS011;37475;43.358;1.248;2023-11-18T06:01:44;19.33;;;10.43;;
51382;SDS011;37475;43.358;1.248;2023-11-18T06:04:12;23.73;;;10.25;;
51382;SDS011;37475;43.358;1.248;2023-11-18T06:06:38;16.40;;;8.98;;
51382;SDS011;37475;43.358;1.248;2023-11-18T06:09:04;19.35;;;9.05;;
51382;SDS011;37475;43.358;1.248;2023-11-18T06:11:34;15.88;;;7.93;;
51382;SDS011;37475;43.358;1.248;2023-11-18T06:14:06;14.07;;;7.82;;
51382;SDS011;37475;43.358;1.248;2023-11-18T06:16:33;17.00;;;7.70;;
51382;SDS011;37475;43.358;1.248;2023-11-18T06:19:00;17.70;;;8.10;;
51382;SDS011;37475;43.358;1.248;2023-11-18T06:21:30;15.48;;;8.00;;
51382;SDS011;37475;43.358;1.248;2023-11-18T06:23:57;17.88;;;9.15;;
51382;SDS011;37475;43.358;1.248;2023-11-18T06:26:24;17.05;;;9.30;;
51382;SDS011;37475;43.358;1.248;2023-11-18T06:28:51;20.45;;;7.82;;
51382;SDS011;37475;43.358;1.248;2023-11-18T06:31:19;21.73;;;7.55;;
51382;SDS011;37475;43.358;1.248;2023-11-18T06:33:46;15.13;;;7.00;;
51382;SDS011;37475;43.358;1.248;2023-11-18T06:38:42;14.30;;;6.75;;
51382;SDS011;37475;43.358;1.248;2023-11-18T06:41:09;16.02;;;7.57;;
51382;SDS011;37475;43.358;1.248;2023-11-18T06:43:38;15.27;;;7.22;;
51382;SDS011;37475;43.358;1.248;2023-11-18T06:46:31;11.65;;;6.97;;
51382;SDS011;37475;43.358;1.248;2023-11-18T06:49:04;15.55;;;6.75;;
51382;SDS011;37475;43.358;1.248;2023-11-18T06:51:32;13.60;;;6.53;;
51382;SDS011;37475;43.358;1.248;2023-11-18T06:54:03;13.30;;;6.43;;
51382;SDS011;37475;43.358;1.248;2023-11-18T06:56:41;14.02;;;7.22;;
51382;SDS011;37475;43.358;1.248;2023-11-18T06:59:08;24.67;;;9.70;;
51382;SDS011;37475;43.358;1.248;2023-11-18T07:01:37;34.58;;;13.30;;
51382;SDS011;37475;43.358;1.248;2023-11-18T07:04:06;50.10;;;17.40;;
51382;SDS011;37475;43.358;1.248;2023-11-18T07:06:33;42.15;;;15.95;;
51382;SDS011;37475;43.358;1.248;2023-11-18T07:09:03;48.90;;;16.70;;
51382;SDS011;37475;43.358;1.248;2023-11-18T07:11:37;44.42;;;15.60;;
51382;SDS011;37475;43.358;1.248;2023-11-18T07:14:05;32.53;;;11.77;;
51382;SDS011;37475;43.358;1.248;2023-11-18T07:16:34;28.80;;;11.50;;
51382;SDS011;37475;43.358;1.248;2023-11-18T07:19:00;37.42;;;12.52;;
51382;SDS011;37475;43.358;1.248;2023-11-18T07:21:28;37.88;;;13.52;;
51382;SDS011;37475;43.358;1.248;2023-11-18T07:23:54;32.58;;;12.20;;
51382;SDS011;37475;43.358;1.248;2023-11-18T07:26:20;28.42;;;11.52;;
51382;SDS011;37475;43.358;1.248;2023-11-18T07:28:46;30.13;;;12.50;;
51382;SDS011;37475;43.358;1.248;2023-11-18T07:31:11;24.23;;;10.95;;
51382;SDS011;37475;43.358;1.248;2023-11-18T07:33:37;24.10;;;10.93;;
51382;SDS011;37475;43.358;1.248;2023-11-18T07:36:03;23.90;;;10.63;;
51382;SDS011;37475;43.358;1.248;2023-11-18T07:38:31;21.38;;;10.32;;
51382;SDS011;37475;43.358;1.248;2023-11-18T07:40:58;20.20;;;9.10;;
51382;SDS011;37475;43.358;1.248;2023-11-18T07:43:25;17.77;;;8.52;;
51382;SDS011;37475;43.358;1.248;2023-11-18T07:45:53;17.85;;;7.78;;
51382;SDS011;37475;43.358;1.248;2023-11-18T07:48:19;17.60;;;7.82;;
51382;SDS011;37475;43.358;1.248;2023-11-18T07:50:45;17.67;;;6.78;;
51382;SDS011;37475;43.358;1.248;2023-11-18T07:53:12;12.73;;;6.30;;
51382;SDS011;37475;43.358;1.248;2023-11-18T07:55:39;13.27;;;6.30;;
51382;SDS011;37475;43.358;1.248;2023-11-18T07:58:11;13.05;;;6.13;;
51382;SDS011;37475;43.358;1.248;2023-11-18T08:03:04;12.70;;;5.72;;
51382;SDS011;37475;43.358;1.248;2023-11-18T08:05:36;12.25;;;6.28;;
51382;SDS011;37475;43.358;1.248;2023-11-18T08:08:05;12.60;;;6.30;;
51382;SDS011;37475;43.358;1.248;2023-11-18T08:10:32;10.27;;;5.35;;
51382;SDS011;37475;43.358;1.248;2023-11-18T08:13:03;13.77;;;5.57;;
51382;SDS011;37475;43.358;1.248;2023-11-18T08:15:31;11.50;;;4.78;;
51382;SDS011;37475;43.358;1.248;2023-11-18T08:17:57;10.60;;;5.15;;
51382;SDS011;37475;43.358;1.248;2023-11-18T08:20:23;10.85;;;5.65;;
51382;SDS011;37475;43.358;1.248;2023-11-18T08:22:50;14.93;;;5.15;;
51382;SDS011;37475;43.358;1.248;2023-11-18T08:25:16;11.25;;;5.05;;
51382;SDS011;37475;43.358;1.248;2023-11-18T08:27:43;12.52;;;4.97;;
51382;SDS011;37475;43.358;1.248;2023-11-18T08:30:11;10.05;;;4.90;;
51382;SDS011;37475;43.358;1.248;2023-11-18T08:32:38;10.35;;;4.78;;
51382;SDS011;37475;43.358;1.248;2023-11-18T08:35:05;8.85;;;4.47;;
51382;SDS011;37475;43.358;1.248;2023-11-18T08:37:33;10.73;;;4.63;;
51382;SDS011;37475;43.358;1.248;2023-11-18T08:40:05;9.43;;;3.88;;
51382;SDS011;37475;43.358;1.248;2023-11-18T08:42:45;9.60;;;4.05;;
51382;SDS011;37475;43.358;1.248;2023-11-18T08:45:15;9.30;;;4.95;;
51382;SDS011;37475;43.358;1.248;2023-11-18T08:47:43;10.10;;;4.35;;
51382;SDS011;37475;43.358;1.248;2023-11-18T08:50:15;11.52;;;6.47;;
51382;SDS011;37475;43.358;1.248;2023-11-18T08:52:45;13.48;;;6.53;;
51382;SDS011;37475;43.358;1.248;2023-11-18T08:55:15;13.52;;;7.40;;
51382;SDS011;37475;43.358;1.248;2023-11-18T08:58:00;12.52;;;6.75;;
51382;SDS011;37475;43.358;1.248;2023-11-18T09:00:30;15.07;;;6.80;;
51382;SDS011;37475;43.358;1.248;2023-11-18T09:03:19;12.27;;;6.38;;
51382;SDS011;37475;43.358;1.248;2023-11-18T09:05:51;8.75;;;4.32;;
51382;SDS011;37475;43.358;1.248;2023-11-18T09:08:27;11.50;;;4.28;;
51382;SDS011;37475;43.358;1.248;2023-11-18T09:11:00;8.88;;;4.15;;
51382;SDS011;37475;43.358;1.248;2023-11-18T09:13:31;8.13;;;4.40;;
51382;SDS011;37475;43.358;1.248;2023-11-18T09:15:59;10.57;;;4.30;;
51382;SDS011;37475;43.358;1.248;2023-11-18T09:18:28;7.93;;;4.57;;
51382;SDS011;37475;43.358;1.248;2023-11-18T09:20:57;9.05;;;4.80;;
51382;SDS011;37475;43.358;1.248;2023-11-18T09:23:30;13.23;;;5.57;;
51382;SDS011;37475;43.358;1.248;2023-11-18T09:26:03;10.63;;;4.88;;
51382;SDS011;37475;43.358;1.248;2023-11-18T09:28:35;9.07;;;4.80;;
51382;SDS011;37475;43.358;1.248;2023-11-18T09:31:06;10.18;;;5.40;;
51382;SDS011;37475;43.358;1.248;2023-11-18T09:36:06;8.90;;;3.95;;
51382;SDS011;37475;43.358;1.248;2023-11-18T09:38:37;11.07;;;3.70;;
51382;SDS011;37475;43.358;1.248;2023-11-18T09:43:46;9.07;;;3.22;;
51382;SDS011;37475;43.358;1.248;2023-11-18T09:48:47;10.30;;;4.50;;
51382;SDS011;37475;43.358;1.248;2023-11-18T09:51:24;7.65;;;3.40;;
51382;SDS011;37475;43.358;1.248;2023-11-18T09:54:01;7.60;;;3.53;;
51382;SDS011;37475;43.358;1.248;2023-11-18T09:56:59;5.27;;;2.60;;
51382;SDS011;37475;43.358;1.248;2023-11-18T09:59:42;7.57;;;2.70;;
51382;SDS011;37475;43.358;1.248;2023-11-18T10:02:24;6.53;;;3.25;;
51382;SDS011;37475;43.358;1.248;2023-11-18T10:04:50;5.88;;;2.78;;
51382;SDS011;37475;43.358;1.248;2023-11-18T10:07:23;5.93;;;2.88;;
51382;SDS011;37475;43.358;1.248;2023-11-18T10:09:55;5.53;;;2.60;;
51382;SDS011;37475;43.358;1.248;2023-11-18T10:12:24;7.47;;;2.70;;
51382;SDS011;37475;43.358;1.248;2023-11-18T10:14:51;5.22;;;2.50;;
51382;SDS011;37475;43.358;1.248;2023-11-18T10:17:17;6.13;;;2.50;;
51382;SDS011;37475;43.358;1.248;2023-11-18T10:22:29;5.20;;;2.30;;
51382;SDS011;37475;43.358;1.248;2023-11-18T10:24:57;7.55;;;2.30;;
51382;SDS011;37475;43.358;1.248;2023-11-18T10:27:29;6.88;;;2.30;;
51382;SDS011;37475;43.358;1.248;2023-11-18T10:30:00;6.53;;;2.28;;
51382;SDS011;37475;43.358;1.248;2023-11-18T10:32:29;5.53;;;1.80;;
51382;SDS011;37475;43.358;1.248;2023-11-18T10:35:00;6.47;;;1.90;;
51382;SDS011;37475;43.358;1.248;2023-11-18T10:37:26;4.93;;;2.10;;
51382;SDS011;37475;43.358;1.248;2023-11-18T10:39:55;3.92;;;1.67;;
51382;SDS011;37475;43.358;1.248;2023-11-18T10:42:25;5.05;;;1.90;;
51382;SDS011;37475;43.358;1.248;2023-11-18T10:44:56;6.50;;;2.17;;
51382;SDS011;37475;43.358;1.248;2023-11-18T10:47:26;6.28;;;2.33;;
51382;SDS011;37475;43.358;1.248;2023-11-18T10:49:54;4.78;;;2.20;;
51382;SDS011;37475;43.358;1.248;2023-11-18T10:52:21;5.57;;;2.28;;
51382;SDS011;37475;43.358;1.248;2023-11-18T10:55:00;4.53;;;2.13;;
51382;SDS011;37475;43.358;1.248;2023-11-18T10:57:32;6.65;;;2.13;;
51382;SDS011;37475;43.358;1.248;2023-11-18T11:00:04;4.70;;;2.08;;
51382;SDS011;37475;43.358;1.248;2023-11-18T11:05:09;4.93;;;2.00;;
51382;SDS011;37475;43.358;1.248;2023-11-18T11:07:42;6.13;;;1.98;;
51382;SDS011;37475;43.358;1.248;2023-11-18T11:10:09;5.57;;;1.98;;
51382;SDS011;37475;43.358;1.248;2023-11-18T11:12:42;5.97;;;1.88;;
51382;SDS011;37475;43.358;1.248;2023-11-18T11:15:28;5.57;;;2.08;;
51382;SDS011;37475;43.358;1.248;2023-11-18T11:17:58;4.85;;;1.80;;
51382;SDS011;37475;43.358;1.248;2023-11-18T11:20:34;4.90;;;1.67;;
51382;SDS011;37475;43.358;1.248;2023-11-18T11:29:42;5.93;;;1.67;;
51382;SDS011;37475;43.358;1.248;2023-11-18T11:32:35;3.45;;;1.40;;
51382;SDS011;37475;43.358;1.248;2023-11-18T11:35:15;6.97;;;1.85;;
51382;SDS011;37475;43.358;1.248;2023-11-18T11:37:47;4.70;;;1.42;;
51382;SDS011;37475;43.358;1.248;2023-11-18T11:40:14;4.78;;;1.27;;
51382;SDS011;37475;43.358;1.248;2023-11-18T11:42:46;4.30;;;1.40;;
51382;SDS011;37475;43.358;1.248;2023-11-18T11:45:23;3.38;;;1.48;;
51382;SDS011;37475;43.358;1.248;2023-11-18T11:47:53;5.05;;;1.40;;
51382;SDS011;37475;43.358;1.248;2023-11-18T11:50:43;4.03;;;1.10;;
51382;SDS011;37475;43.358;1.248;2023-11-18T11:53:22;5.07;;;1.48;;
51382;SDS011;37475;43.358;1.248;2023-11-18T11:55:54;4.60;;;1.40;;
51382;SDS011;37475;43.358;1.248;2023-11-18T11:58:31;4.90;;;1.60;;
51382;SDS011;37475;43.358;1.248;2023-11-18T12:01:35;7.13;;;1.50;;
51382;SDS011;37475;43.358;1.248;2023-11-18T12:04:03;5.70;;;1.80;;
51382;SDS011;37475;43.358;1.248;2023-11-18T12:06:41;5.15;;;1.90;;
51382;SDS011;37475;43.358;1.248;2023-11-18T12:09:09;6.07;;;2.22;;
51382;SDS011;37475;43.358;1.248;2023-11-18T12:11:35;4.53;;;1.75;;
51382;SDS011;37475;43.358;1.248;2023-11-18T12:14:07;4.75;;;1.92;;
51382;SDS011;37475;43.358;1.248;2023-11-18T12:17:05;5.18;;;1.80;;
51382;SDS011;37475;43.358;1.248;2023-11-18T12:19:37;4.45;;;1.88;;
51382;SDS011;37475;43.358;1.248;2023-11-18T12:22:11;3.65;;;1.52;;
51382;SDS011;37475;43.358;1.248;2023-11-18T12:27:41;4.45;;;1.50;;
51382;SDS011;37475;43.358;1.248;2023-11-18T12:38:38;2.25;;;1.08;;
51382;SDS011;37475;43.358;1.248;2023-11-18T12:41:55;3.67;;;1.25;;
51382;SDS011;37475;43.358;1.248;2023-11-18T12:44:35;3.05;;;1.27;;
51382;SDS011;37475;43.358;1.248;2023-11-18T12:47:06;2.95;;;1.10;;
51382;SDS011;37475;43.358;1.248;2023-11-18T12:52:10;3.22;;;1.13;;
51382;SDS011;37475;43.358;1.248;2023-11-18T12:54:40;4.18;;;1.38;;
51382;SDS011;37475;43.358;1.248;2023-11-18T12:57:12;3.72;;;1.30;;
51382;SDS011;37475;43.358;1.248;2023-11-18T12:59:39;3.97;;;1.92;;
51382;SDS011;37475;43.358;1.248;2023-11-18T13:02:09;3.97;;;1.20;;
51382;SDS011;37475;43.358;1.248;2023-11-18T13:04:43;3.17;;;1.20;;
51382;SDS011;37475;43.358;1.248;2023-11-18T13:07:12;2.63;;;1.10;;
51382;SDS011;37475;43.358;1.248;2023-11-18T13:09:46;4.35;;;1.23;;
51382;SDS011;37475;43.358;1.248;2023-11-18T13:12:13;3.13;;;1.15;;
51382;SDS011;37475;43.358;1.248;2023-11-18T13:14:40;3.25;;;1.23;;
51382;SDS011;37475;43.358;1.248;2023-11-18T13:17:11;2.88;;;1.00;;
51382;SDS011;37475;43.358;1.248;2023-11-18T13:19:39;3.72;;;1.10;;
51382;SDS011;37475;43.358;1.248;2023-11-18T13:22:06;3.50;;;1.20;;
51382;SDS011;37475;43.358;1.248;2023-11-18T13:24:37;4.85;;;1.40;;
51382;SDS011;37475;43.358;1.248;2023-11-18T13:27:04;3.53;;;1.20;;
51382;SDS011;37475;43.358;1.248;2023-11-18T13:29:32;2.65;;;1.10;;
51382;SDS011;37475;43.358;1.248;2023-11-18T13:32:00;3.95;;;1.30;;
51382;SDS011;37475;43.358;1.248;2023-11-18T13:34:39;4.40;;;1.40;;
51382;SDS011;37475;43.358;1.248;2023-11-18T13:37:07;5.57;;;1.30;;
51382;SDS011;37475;43.358;1.248;2023-11-18T13:39:35;4.45;;;1.30;;
51382;SDS011;37475;43.358;1.248;2023-11-18T13:44:45;4.00;;;1.30;;
51382;SDS011;37475;43.358;1.248;2023-11-18T13:47:13;4.15;;;1.50;;
51382;SDS011;37475;43.358;1.248;2023-11-18T13:49:41;4.97;;;1.38;;
51382;SDS011;37475;43.358;1.248;2023-11-18T13:52:08;5.18;;;1.30;;
51382;SDS011;37475;43.358;1.248;2023-11-18T13:54:39;4.80;;;1.52;;
51382;SDS011;37475;43.358;1.248;2023-11-18T13:57:08;4.77;;;1.30;;
51382;SDS011;37475;43.358;1.248;2023-11-18T13:59:34;4.70;;;1.48;;
51382;SDS011;37475;43.358;1.248;2023-11-18T14:02:00;7.25;;;1.60;;
51382;SDS011;37475;43.358;1.248;2023-11-18T14:04:29;3.53;;;1.70;;
51382;SDS011;37475;43.358;1.248;2023-11-18T14:07:01;7.75;;;1.70;;
51382;SDS011;37475;43.358;1.248;2023-11-18T14:09:30;6.82;;;1.60;;
51382;SDS011;37475;43.358;1.248;2023-11-18T14:12:01;3.83;;;1.70;;
51382;SDS011;37475;43.358;1.248;2023-11-18T14:14:27;4.15;;;1.70;;
51382;SDS011;37475;43.358;1.248;2023-11-18T14:16:54;7.40;;;2.05;;
51382;SDS011;37475;43.358;1.248;2023-11-18T14:19:27;11.48;;;2.38;;
51382;SDS011;37475;43.358;1.248;2023-11-18T14:21:54;3.03;;;1.20;;
51382;SDS011;37475;43.358;1.248;2023-11-18T14:24:21;4.03;;;1.23;;
51382;SDS011;37475;43.358;1.248;2023-11-18T14:26:53;3.85;;;1.30;;
51382;SDS011;37475;43.358;1.248;2023-11-18T14:29:19;64.72;;;5.22;;
51382;SDS011;37475;43.358;1.248;2023-11-18T14:31:45;6.07;;;1.40;;
51382;SDS011;37475;43.358;1.248;2023-11-18T14:34:11;13.15;;;1.95;;
51382;SDS011;37475;43.358;1.248;2023-11-18T14:36:37;50.50;;;4.55;;
51382;SDS011;37475;43.358;1.248;2023-11-18T14:39:03;15.90;;;2.38;;
51382;SDS011;37475;43.358;1.248;2023-11-18T14:41:30;31.60;;;2.95;;
51382;SDS011;37475;43.358;1.248;2023-11-18T14:43:59;9.60;;;1.95;;
51382;SDS011;37475;43.358;1.248;2023-11-18T14:46:27;19.45;;;1.90;;
51382;SDS011;37475;43.358;1.248;2023-11-18T14:48:53;187.30;;;21.33;;
51382;SDS011;37475;43.358;1.248;2023-11-18T14:51:19;13.45;;;2.60;;
51382;SDS011;37475;43.358;1.248;2023-11-18T14:53:46;5.47;;;1.67;;
51382;SDS011;37475;43.358;1.248;2023-11-18T14:56:11;8.85;;;2.30;;
51382;SDS011;37475;43.358;1.248;2023-11-18T14:58:37;4.40;;;1.90;;
51382;SDS011;37475;43.358;1.248;2023-11-18T15:01:03;9.80;;;1.90;;
51382;SDS011;37475;43.358;1.248;2023-11-18T15:03:32;5.40;;;1.80;;
51382;SDS011;37475;43.358;1.248;2023-11-18T15:05:58;7.18;;;1.80;;
51382;SDS011;37475;43.358;1.248;2023-11-18T15:08:24;8.32;;;2.20;;
51382;SDS011;37475;43.358;1.248;2023-11-18T15:10:50;5.72;;;2.33;;
51382;SDS011;37475;43.358;1.248;2023-11-18T15:13:16;5.82;;;2.22;;
51382;SDS011;37475;43.358;1.248;2023-11-18T15:15:43;6.93;;;2.60;;
51382;SDS011;37475;43.358;1.248;2023-11-18T15:18:13;6.95;;;2.85;;
51382;SDS011;37475;43.358;1.248;2023-11-18T15:20:42;6.45;;;2.50;;
51382;SDS011;37475;43.358;1.248;2023-11-18T15:23:11;6.55;;;2.50;;
51382;SDS011;37475;43.358;1.248;2023-11-18T15:25:40;7.45;;;2.53;;
51382;SDS011;37475;43.358;1.248;2023-11-18T15:28:06;4.97;;;2.08;;
51382;SDS011;37475;43.358;1.248;2023-11-18T15:30:38;7.90;;;2.30;;
51382;SDS011;37475;43.358;1.248;2023-11-18T15:33:05;4.55;;;2.35;;
51382;SDS011;37475;43.358;1.248;2023-11-18T15:35:34;5.30;;;2.25;;